Time;durP1;ratioP1;P1;durP2;ratioP2;P2;SDS_P1;SDS_P2;PMS_P1;PMS_P2;Temp;Humidity;BMP_temperature;BMP_pressure;BME280_temperature;BME280_humidity;BME280_pressure;Samples;Min_cycle;Max_cycle;Signal;HPM_P1;HPM_P2
2021/10/02 00:46:30;;;;;;;8.32;7.47;;;;;;;;;;5114158;28;20492;-62
2021/10/02 00:48:56;;;;;;;7.57;6.85;;;;;;;;;;5113500;28;20043;-62
2021/10/02 00:51:22;;;;;;;8.68;6.88;;;;;;;;;;5113806;28;20046;-62
2021/10/02 00:53:47;;;;;;;8.05;6.53;;;;;;;;;;5114066;28;20034;-62
2021/10/02 00:56:13;;;;;;;6.63;6.03;;;;;;;;;;5113806;28;20053;-62
2021/10/02 00:58:44;;;;;;;8.55;6.72;;;;;;;;;;5094637;28;20047;-63
2021/10/02 01:01:10;;;;;;;7.40;6.03;;;;;;;;;;5093636;28;20040;-62
2021/10/02 01:03:43;;;;;;;7.43;6.20;;;;;;;;;;5093330;28;20024;-62
2021/10/02 01:06:15;;;;;;;7.13;6.22;;;;;;;;;;5093312;28;20088;-62
2021/10/02 01:08:59;;;;;;;7.78;6.97;;;;;;;;;;5093456;28;20460;-63
2021/10/02 01:11:38;;;;;;;7.80;6.30;;;;;;;;;;5093365;28;20460;-63
2021/10/02 01:14:16;;;;;;;10.07;7.20;;;;;;;;;;5093818;28;20062;-62
2021/10/02 01:16:44;;;;;;;11.30;7.95;;;;;;;;;;5093545;28;20040;-62
2021/10/02 01:19:25;;;;;;;11.88;7.80;;;;;;;;;;5093333;28;20032;-62
2021/10/02 01:21:53;;;;;;;10.65;7.40;;;;;;;;;;5093508;28;20040;-62
2021/10/02 01:24:26;;;;;;;10.90;8.02;;;;;;;;;;5093261;28;20051;-62
2021/10/02 01:26:54;;;;;;;7.63;6.80;;;;;;;;;;5093170;28;20044;-62
2021/10/02 01:29:20;;;;;;;6.85;6.22;;;;;;;;;;5093311;28;20028;-63
2021/10/02 01:32:05;;;;;;;7.40;6.20;;;;;;;;;;5093338;28;20043;-63
2021/10/02 01:37:49;;;;;;;7.20;4.95;;;;;;;;;;5093197;28;20144;-62
2021/10/02 01:48:14;;;;;;;6.70;5.03;;;;;;;;;;5097398;28;20427;-62
2021/10/02 01:50:41;;;;;;;6.55;5.20;;;;;;;;;;5078916;28;20028;-62
2021/10/02 01:53:07;;;;;;;8.25;5.55;;;;;;;;;;5096976;28;20028;-62
2021/10/02 01:55:33;;;;;;;9.05;5.80;;;;;;;;;;5096769;28;20544;-62
2021/10/02 01:58:03;;;;;;;7.15;5.75;;;;;;;;;;5096675;28;20032;-62
2021/10/02 02:00:30;;;;;;;10.52;6.95;;;;;;;;;;5096645;28;20051;-62
2021/10/02 02:02:57;;;;;;;8.07;6.75;;;;;;;;;;5096721;28;20130;-62
2021/10/02 02:05:25;;;;;;;7.90;6.53;;;;;;;;;;5096409;28;20060;-62
2021/10/02 02:07:53;;;;;;;9.90;6.45;;;;;;;;;;5096567;28;20447;-62
2021/10/02 02:10:20;;;;;;;8.63;6.38;;;;;;;;;;5096980;28;20040;-62
2021/10/02 02:12:46;;;;;;;6.28;5.18;;;;;;;;;;5096436;28;20495;-63
2021/10/02 02:15:13;;;;;;;7.72;5.38;;;;;;;;;;5096384;28;20032;-63
2021/10/02 02:17:41;;;;;;;5.82;5.22;;;;;;;;;;5096462;28;20036;-63
2021/10/02 02:20:08;;;;;;;7.70;4.97;;;;;;;;;;5096296;28;20036;-62
2021/10/02 02:22:34;;;;;;;7.00;5.50;;;;;;;;;;5096205;28;20036;-62
2021/10/02 02:25:00;;;;;;;10.38;6.53;;;;;;;;;;5096116;28;20028;-63
2021/10/02 02:27:28;;;;;;;14.23;7.78;;;;;;;;;;5096171;28;20036;-62
2021/10/02 02:29:53;;;;;;;13.02;7.57;;;;;;;;;;5061377;28;20456;-62
2021/10/02 02:32:19;;;;;;;9.98;6.85;;;;;;;;;;5096416;28;20045;-62
2021/10/02 02:34:48;;;;;;;6.57;5.38;;;;;;;;;;5096082;28;20040;-63
2021/10/02 02:37:13;;;;;;;6.25;5.13;;;;;;;;;;5095790;28;20067;-63
2021/10/02 02:39:39;;;;;;;5.85;4.70;;;;;;;;;;5096265;28;20078;-62
2021/10/02 02:42:04;;;;;;;6.57;5.25;;;;;;;;;;5095867;28;20040;-62
2021/10/02 02:44:30;;;;;;;6.53;5.25;;;;;;;;;;5095822;28;20069;-62
2021/10/02 02:47:00;;;;;;;5.82;5.10;;;;;;;;;;5095827;28;20057;-62
2021/10/02 02:49:32;;;;;;;4.93;4.45;;;;;;;;;;5096107;28;20040;-62
2021/10/02 02:52:02;;;;;;;7.03;5.45;;;;;;;;;;5095402;28;20036;-63
2021/10/02 02:54:28;;;;;;;;;;;;;;;;;;5095659;28;20034;-62
2021/10/02 02:56:55;;;;;;;9.57;6.10;;;;;;;;;;5095620;28;20278;-60
2021/10/02 02:59:32;;;;;;;8.95;6.05;;;;;;;;;;5095192;28;20089;-60
2021/10/02 03:02:00;;;;;;;13.27;7.18;;;;;;;;;;5095501;28;20042;-60
2021/10/02 03:04:29;;;;;;;11.68;6.30;;;;;;;;;;5095427;28;20051;-62
2021/10/02 03:06:56;;;;;;;10.35;6.03;;;;;;;;;;5095539;28;20036;-62
2021/10/02 03:09:22;;;;;;;11.10;6.47;;;;;;;;;;5095327;28;20111;-61
2021/10/02 03:11:50;;;;;;;13.77;6.35;;;;;;;;;;5077492;28;20036;-60
2021/10/02 03:14:19;;;;;;;14.30;6.60;;;;;;;;;;5095130;28;20115;-62
2021/10/02 03:16:45;;;;;;;9.95;5.70;;;;;;;;;;5095313;28;20093;-63
2021/10/02 03:19:12;;;;;;;11.60;6.00;;;;;;;;;;5095248;28;20085;-63
2021/10/02 03:21:38;;;;;;;13.60;6.53;;;;;;;;;;5095153;28;20093;-62
2021/10/02 03:24:05;;;;;;;7.78;4.93;;;;;;;;;;5095059;28;20380;-62
2021/10/02 03:26:31;;;;;;;17.38;6.90;;;;;;;;;;5095129;28;20032;-62
2021/10/02 03:28:58;;;;;;;14.23;6.35;;;;;;;;;;5095195;28;20522;-62
2021/10/02 03:31:24;;;;;;;9.20;5.90;;;;;;;;;;5076423;28;20040;-62
2021/10/02 03:33:50;;;;;;;8.20;5.72;;;;;;;;;;5077013;28;20047;-62
2021/10/02 03:36:15;;;;;;;13.05;8.23;;;;;;;;;;5077215;28;20043;-62
2021/10/02 03:38:41;;;;;;;7.88;6.75;;;;;;;;;;5094958;28;20157;-62
2021/10/02 03:41:07;;;;;;;8.63;6.22;;;;;;;;;;5094769;28;20040;-62
2021/10/02 03:43:34;;;;;;;5.57;5.07;;;;;;;;;;5094749;28;20043;-62
2021/10/02 03:46:00;;;;;;;5.13;4.43;;;;;;;;;;5076789;28;20040;-62
2021/10/02 03:48:25;;;;;;;6.05;5.20;;;;;;;;;;5094569;28;20031;-62
2021/10/02 03:50:52;;;;;;;5.82;5.30;;;;;;;;;;5094671;28;20134;-62
2021/10/02 03:53:17;;;;;;;6.70;5.60;;;;;;;;;;5094639;28;20032;-62
2021/10/02 03:55:43;;;;;;;6.78;6.15;;;;;;;;;;5094492;28;20040;-63
2021/10/02 03:58:09;;;;;;;6.65;5.78;;;;;;;;;;5094409;28;20024;-61
2021/10/02 04:00:34;;;;;;;5.03;4.57;;;;;;;;;;5094661;28;20055;-61
2021/10/02 04:03:00;;;;;;;5.40;4.82;;;;;;;;;;5094581;28;20032;-59
2021/10/02 04:05:25;;;;;;;5.32;4.82;;;;;;;;;;5094042;28;20040;-61
2021/10/02 04:07:51;;;;;;;6.68;5.60;;;;;;;;;;5094410;28;20028;-62
2021/10/02 04:10:17;;;;;;;6.85;5.68;;;;;;;;;;5094347;28;20063;-62
2021/10/02 04:12:42;;;;;;;7.40;5.78;;;;;;;;;;5094426;28;20464;-61
2021/10/02 04:15:08;;;;;;;6.45;5.85;;;;;;;;;;5093487;28;20040;-61
2021/10/02 04:17:34;;;;;;;7.15;5.97;;;;;;;;;;5094122;28;20036;-62
2021/10/02 04:19:59;;;;;;;9.45;7.50;;;;;;;;;;5093995;28;20376;-62
2021/10/02 04:22:25;;;;;;;7.22;6.53;;;;;;;;;;5094022;28;20070;-62
2021/10/02 04:24:51;;;;;;;6.97;6.18;;;;;;;;;;5093747;28;20044;-62
2021/10/02 04:27:16;;;;;;;8.38;6.72;;;;;;;;;;5074497;28;20028;-62
2021/10/02 04:29:42;;;;;;;8.88;7.60;;;;;;;;;;5093625;28;20047;-62
2021/10/02 04:32:07;;;;;;;9.80;8.32;;;;;;;;;;5093115;28;20134;-62
2021/10/02 04:34:33;;;;;;;12.95;10.20;;;;;;;;;;5093157;28;20089;-62
2021/10/02 04:36:59;;;;;;;13.07;10.15;;;;;;;;;;5093263;28;20028;-62
2021/10/02 04:39:26;;;;;;;11.85;9.50;;;;;;;;;;5092994;28;20494;-62
2021/10/02 04:41:51;;;;;;;10.27;8.95;;;;;;;;;;5093418;28;20131;-62
2021/10/02 04:44:17;;;;;;;9.63;8.63;;;;;;;;;;5093592;28;20130;-62
2021/10/02 04:46:42;;;;;;;11.80;8.65;;;;;;;;;;5093727;28;20024;-62
2021/10/02 04:49:09;;;;;;;8.48;7.53;;;;;;;;;;5093501;28;20032;-62
2021/10/02 04:51:35;;;;;;;6.75;5.50;;;;;;;;;;5093891;28;20024;-62
2021/10/02 04:54:01;;;;;;;6.35;5.75;;;;;;;;;;5093459;28;20035;-62
2021/10/02 04:56:33;;;;;;;5.90;5.40;;;;;;;;;;5093737;28;20434;-62
2021/10/02 04:58:59;;;;;;;5.80;5.10;;;;;;;;;;5095923;28;20093;-63
2021/10/02 05:01:24;;;;;;;6.10;5.50;;;;;;;;;;5095866;28;20043;-62
2021/10/02 05:03:51;;;;;;;5.68;5.00;;;;;;;;;;5113612;28;20047;-62
2021/10/02 05:06:16;;;;;;;5.95;5.30;;;;;;;;;;5113615;28;20028;-62
2021/10/02 05:08:43;;;;;;;4.93;4.53;;;;;;;;;;5113482;28;20088;-62
2021/10/02 05:11:08;;;;;;;5.25;4.75;;;;;;;;;;5113393;28;20030;-62
2021/10/02 05:13:34;;;;;;;6.30;4.75;;;;;;;;;;5113584;28;20032;-62
2021/10/02 05:16:01;;;;;;;5.13;4.53;;;;;;;;;;5114695;28;20386;-62
2021/10/02 05:18:27;;;;;;;4.93;4.53;;;;;;;;;;5117537;28;20479;-62
2021/10/02 05:20:52;;;;;;;4.93;4.47;;;;;;;;;;5117838;28;20035;-62
2021/10/02 05:23:18;;;;;;;4.60;4.22;;;;;;;;;;5117316;28;20032;-62
2021/10/02 05:25:43;;;;;;;5.03;4.63;;;;;;;;;;5116095;28;20034;-62
2021/10/02 05:28:09;;;;;;;4.43;4.07;;;;;;;;;;5116483;28;20040;-62
2021/10/02 05:30:34;;;;;;;5.35;4.50;;;;;;;;;;5117912;28;20031;-62
2021/10/02 05:33:03;;;;;;;5.75;5.20;;;;;;;;;;5117483;28;20058;-62
2021/10/02 05:35:29;;;;;;;6.35;5.75;;;;;;;;;;5117335;28;20024;-62
2021/10/02 05:37:55;;;;;;;7.15;6.47;;;;;;;;;;5117410;28;20071;-62
2021/10/02 05:40:20;;;;;;;6.78;6.18;;;;;;;;;;5117611;28;20548;-62
2021/10/02 05:42:46;;;;;;;6.95;5.70;;;;;;;;;;5117669;28;20036;-62
2021/10/02 05:45:11;;;;;;;6.13;5.63;;;;;;;;;;5117429;28;20123;-62
2021/10/02 05:47:37;;;;;;;6.65;5.80;;;;;;;;;;5117260;28;20032;-62
2021/10/02 05:50:03;;;;;;;6.47;5.20;;;;;;;;;;5117357;28;20024;-62
2021/10/02 05:52:29;;;;;;;5.15;4.60;;;;;;;;;;5116649;28;20358;-62
2021/10/02 05:54:54;;;;;;;5.50;4.90;;;;;;;;;;5116666;28;20115;-62
2021/10/02 05:57:21;;;;;;;4.65;4.10;;;;;;;;;;5116763;28;20036;-62
2021/10/02 05:59:47;;;;;;;4.80;4.35;;;;;;;;;;5116676;28;20043;-62
2021/10/02 06:02:13;;;;;;;5.20;4.72;;;;;;;;;;5117196;28;20244;-62
2021/10/02 06:04:39;;;;;;;5.60;4.30;;;;;;;;;;5116779;28;20040;-62
2021/10/02 06:07:05;;;;;;;4.82;4.40;;;;;;;;;;5116719;28;20036;-62
2021/10/02 06:09:31;;;;;;;5.00;4.35;;;;;;;;;;5117152;28;20432;-62
2021/10/02 06:11:57;;;;;;;4.93;4.53;;;;;;;;;;5116688;28;20093;-63
2021/10/02 06:14:22;;;;;;;4.85;4.30;;;;;;;;;;5116870;28;20032;-62
2021/10/02 06:16:48;;;;;;;4.72;4.28;;;;;;;;;;5108520;28;20040;-62
2021/10/02 06:19:14;;;;;;;4.85;4.40;;;;;;;;;;5113626;28;20517;-62
2021/10/02 06:21:40;;;;;;;5.15;4.65;;;;;;;;;;5113193;28;20047;-62
2021/10/02 06:24:06;;;;;;;4.75;4.28;;;;;;;;;;5113470;28;20024;-62
2021/10/02 06:26:33;;;;;;;5.38;4.05;;;;;;;;;;5112809;28;20401;-62
2021/10/02 06:28:58;;;;;;;3.85;3.45;;;;;;;;;;5094735;28;20031;-62
2021/10/02 06:31:24;;;;;;;3.78;3.47;;;;;;;;;;5113318;28;20040;-62
2021/10/02 06:33:50;;;;;;;4.15;3.80;;;;;;;;;;5112703;28;20035;-62
2021/10/02 06:36:16;;;;;;;4.47;4.07;;;;;;;;;;5112418;28;20106;-62
2021/10/02 06:38:42;;;;;;;3.90;3.58;;;;;;;;;;5113087;28;20660;-62
2021/10/02 06:41:08;;;;;;;4.38;3.97;;;;;;;;;;5112591;28;20057;-63
2021/10/02 06:43:33;;;;;;;4.03;3.63;;;;;;;;;;5112970;28;20542;-63
2021/10/02 06:46:00;;;;;;;5.68;4.03;;;;;;;;;;5112971;28;20048;-63
2021/10/02 06:48:25;;;;;;;6.20;4.18;;;;;;;;;;5112636;28;20034;-63
2021/10/02 06:50:51;;;;;;;4.35;3.95;;;;;;;;;;5113157;28;20379;-53
2021/10/02 06:53:16;;;;;;;4.20;3.80;;;;;;;;;;5113077;28;20473;-53
2021/10/02 06:55:42;;;;;;;4.25;3.88;;;;;;;;;;5113023;28;20050;-63
2021/10/02 06:58:08;;;;;;;6.60;4.53;;;;;;;;;;5112622;28;20113;-63
2021/10/02 07:00:34;;;;;;;4.45;3.78;;;;;;;;;;5097926;28;20143;-63
2021/10/02 07:03:00;;;;;;;4.43;4.03;;;;;;;;;;5092450;28;20074;-63
2021/10/02 07:05:26;;;;;;;5.15;4.15;;;;;;;;;;5092299;28;20123;-63
2021/10/02 07:07:51;;;;;;;7.35;4.32;;;;;;;;;;5092057;28;20063;-63
2021/10/02 07:10:19;;;;;;;9.40;4.60;;;;;;;;;;5092115;28;20050;-63
2021/10/02 07:12:45;;;;;;;4.68;4.28;;;;;;;;;;5092192;28;20027;-63
2021/10/02 07:15:11;;;;;;;4.50;4.10;;;;;;;;;;5092133;28;20475;-63
2021/10/02 07:17:37;;;;;;;6.82;3.88;;;;;;;;;;5091760;28;20102;-63
2021/10/02 07:20:03;;;;;;;5.78;4.25;;;;;;;;;;5073526;28;20124;-63
2021/10/02 07:22:34;;;;;;;4.22;3.83;;;;;;;;;;5091738;28;20047;-63
2021/10/02 07:25:00;;;;;;;4.35;3.97;;;;;;;;;;5091776;28;20387;-63
2021/10/02 07:27:26;;;;;;;4.75;4.22;;;;;;;;;;5091749;28;20024;-62
2021/10/02 07:29:52;;;;;;;5.22;4.53;;;;;;;;;;5091507;28;20039;-62
2021/10/02 07:32:17;;;;;;;4.60;4.20;;;;;;;;;;5091715;28;20516;-62
2021/10/02 07:34:43;;;;;;;8.60;7.47;;;;;;;;;;5091334;28;20043;-62
2021/10/02 07:37:08;;;;;;;6.43;5.07;;;;;;;;;;5091341;28;20032;-62
2021/10/02 07:39:34;;;;;;;8.93;5.53;;;;;;;;;;5090786;28;20043;-62
2021/10/02 07:42:00;;;;;;;10.48;5.40;;;;;;;;;;5091495;28;20480;-62
2021/10/02 07:44:28;;;;;;;12.60;6.07;;;;;;;;;;5091490;28;20040;-62
2021/10/02 07:46:54;;;;;;;23.70;14.73;;;;;;;;;;5091138;28;20055;-62
2021/10/02 07:49:21;;;;;;;7.63;6.35;;;;;;;;;;5091595;28;20044;-62
2021/10/02 07:51:47;;;;;;;28.30;20.30;;;;;;;;;;5091291;28;20058;-62
2021/10/02 07:54:12;;;;;;;13.88;9.25;;;;;;;;;;5091365;28;20415;-62
2021/10/02 07:56:39;;;;;;;13.43;9.00;;;;;;;;;;5091285;28;20043;-62
2021/10/02 07:59:07;;;;;;;11.70;9.00;;;;;;;;;;5090719;28;20071;-62
2021/10/02 08:01:34;;;;;;;11.50;8.68;;;;;;;;;;5091389;28;20048;-61
2021/10/02 08:04:04;;;;;;;15.88;10.45;;;;;;;;;;5091188;28;20048;-61
2021/10/02 08:06:30;;;;;;;10.50;8.95;;;;;;;;;;5091022;28;20032;-62
2021/10/02 08:08:56;;;;;;;10.80;7.82;;;;;;;;;;5090594;28;20042;-62
2021/10/02 08:11:22;;;;;;;12.23;9.40;;;;;;;;;;5091414;28;20036;-61
2021/10/02 08:13:48;;;;;;;12.75;9.07;;;;;;;;;;5090804;28;20040;-62
2021/10/02 08:16:14;;;;;;;15.10;8.75;;;;;;;;;;5072494;28;20070;-62
2021/10/02 08:18:42;;;;;;;26.48;17.58;;;;;;;;;;5091051;28;20420;-62
2021/10/02 08:21:08;;;;;;;14.35;10.23;;;;;;;;;;5091002;28;20024;-61
2021/10/02 08:23:35;;;;;;;13.65;8.98;;;;;;;;;;5091099;28;20502;-62
2021/10/02 08:26:01;;;;;;;19.52;13.13;;;;;;;;;;5090551;28;20425;-62
2021/10/02 08:28:27;;;;;;;11.35;8.70;;;;;;;;;;5090835;28;20044;-62
2021/10/02 08:30:52;;;;;;;11.18;8.82;;;;;;;;;;5072559;28;20111;-62
2021/10/02 08:33:18;;;;;;;9.90;8.68;;;;;;;;;;5090787;28;20403;-61
2021/10/02 08:35:44;;;;;;;12.27;9.63;;;;;;;;;;5072447;28;20028;-62
2021/10/02 08:38:11;;;;;;;11.65;8.98;;;;;;;;;;5072256;28;20134;-61
2021/10/02 08:40:38;;;;;;;14.75;9.30;;;;;;;;;;5090506;28;20076;-61
2021/10/02 08:43:08;;;;;;;10.27;6.47;;;;;;;;;;5090426;28;20044;-62
2021/10/02 08:45:34;;;;;;;14.60;9.77;;;;;;;;;;5090698;28;20048;-61
2021/10/02 08:48:00;;;;;;;12.45;9.18;;;;;;;;;;5090337;28;20364;-61
2021/10/02 08:50:26;;;;;;;10.45;7.47;;;;;;;;;;5089676;28;20028;-61
2021/10/02 08:52:52;;;;;;;12.75;8.73;;;;;;;;;;5090419;28;20035;-62
2021/10/02 08:55:18;;;;;;;12.45;9.65;;;;;;;;;;5090460;28;20479;-61
2021/10/02 08:57:44;;;;;;;14.93;8.80;;;;;;;;;;5071921;28;20050;-61
2021/10/02 09:00:12;;;;;;;11.27;9.00;;;;;;;;;;5090277;28;20048;-61
2021/10/02 09:02:38;;;;;;;9.52;6.43;;;;;;;;;;5090312;28;20040;-61
2021/10/02 09:05:06;;;;;;;12.23;9.00;;;;;;;;;;5090102;28;20052;-61
2021/10/02 09:07:31;;;;;;;12.60;8.90;;;;;;;;;;5090008;28;20027;-61
2021/10/02 09:10:01;;;;;;;10.23;8.00;;;;;;;;;;5090405;28;20052;-61
2021/10/02 09:12:27;;;;;;;10.25;8.10;;;;;;;;;;5072181;28;20036;-61
2021/10/02 09:14:53;;;;;;;10.05;6.13;;;;;;;;;;5089999;28;20119;-61
2021/10/02 09:17:19;;;;;;;16.00;9.75;;;;;;;;;;5089869;28;20701;-62
2021/10/02 09:19:45;;;;;;;19.05;11.15;;;;;;;;;;5090266;28;20114;-62
2021/10/02 09:22:13;;;;;;;18.67;10.45;;;;;;;;;;5090125;28;20541;-63
2021/10/02 09:24:43;;;;;;;17.48;7.72;;;;;;;;;;5089987;28;20036;-62
2021/10/02 09:27:09;;;;;;;;;;;;;;;;;;5089951;28;20069;-63
2021/10/02 09:29:34;;;;;;;15.07;9.45;;;;;;;;;;5089948;28;20318;-61
2021/10/02 09:32:00;;;;;;;12.20;7.82;;;;;;;;;;5089936;28;20032;-63
2021/10/02 09:34:26;;;;;;;18.85;10.85;;;;;;;;;;5089684;28;20119;-62
2021/10/02 09:36:52;;;;;;;16.02;9.60;;;;;;;;;;5089267;28;20059;-62
2021/10/02 09:39:17;;;;;;;14.65;10.00;;;;;;;;;;5089456;28;20040;-62
2021/10/02 09:41:50;;;;;;;15.52;10.10;;;;;;;;;;5089720;28;20084;-63
2021/10/02 09:44:23;;;;;;;15.75;8.80;;;;;;;;;;5071007;28;20093;-63
2021/10/02 09:46:49;;;;;;;11.95;8.30;;;;;;;;;;5089306;28;20040;-63
2021/10/02 09:49:14;;;;;;;14.65;8.93;;;;;;;;;;5089534;28;20040;-63
2021/10/02 09:51:41;;;;;;;12.43;9.32;;;;;;;;;;5089698;28;20131;-63
2021/10/02 09:54:07;;;;;;;13.60;9.07;;;;;;;;;;5089697;28;20034;-63
2021/10/02 09:56:33;;;;;;;15.43;10.23;;;;;;;;;;5089402;28;20040;-63
2021/10/02 09:58:58;;;;;;;10.55;6.68;;;;;;;;;;5089414;28;20044;-63
2021/10/02 10:01:25;;;;;;;12.95;8.15;;;;;;;;;;5089497;28;20046;-63
2021/10/02 10:03:51;;;;;;;11.73;8.23;;;;;;;;;;5074524;28;20067;-63
2021/10/02 10:06:18;;;;;;;14.15;8.10;;;;;;;;;;5093263;28;20415;-63
2021/10/02 10:08:43;;;;;;;7.90;5.35;;;;;;;;;;5093862;28;20032;-62
2021/10/02 10:11:10;;;;;;;11.13;8.07;;;;;;;;;;5093396;28;20040;-62
2021/10/02 10:13:36;;;;;;;10.25;8.00;;;;;;;;;;5093387;28;20028;-63
2021/10/02 10:16:05;;;;;;;4.78;3.50;;;;;;;;;;5093360;28;20044;-62
2021/10/02 10:18:35;;;;;;;12.90;8.02;;;;;;;;;;5093246;28;20089;-64
2021/10/02 10:21:01;;;;;;;11.38;7.03;;;;;;;;;;5093693;28;20055;-64
2021/10/02 10:23:30;;;;;;;3.25;2.95;;;;;;;;;;5093343;28;20036;-65
2021/10/02 10:25:59;;;;;;;12.43;7.35;;;;;;;;;;5093061;28;20092;-65
2021/10/02 10:28:27;;;;;;;9.70;7.40;;;;;;;;;;5093367;28;20024;-65
2021/10/02 10:30:53;;;;;;;11.05;6.70;;;;;;;;;;5093566;28;20044;-65
2021/10/02 10:33:21;;;;;;;13.55;7.63;;;;;;;;;;5093113;28;20033;-65
2021/10/02 10:35:53;;;;;;;8.85;7.00;;;;;;;;;;5093207;28;20048;-65
2021/10/02 10:38:23;;;;;;;10.38;7.70;;;;;;;;;;5092902;28;20036;-65
2021/10/02 10:40:50;;;;;;;9.98;7.22;;;;;;;;;;5092794;28;20040;-65
2021/10/02 10:43:17;;;;;;;10.38;7.80;;;;;;;;;;5092854;28;20075;-65
2021/10/02 10:45:42;;;;;;;8.63;6.50;;;;;;;;;;5092643;28;20031;-65
2021/10/02 10:48:09;;;;;;;9.82;6.53;;;;;;;;;;5092559;28;20047;-64
2021/10/02 10:50:38;;;;;;;7.85;4.85;;;;;;;;;;5092663;28;20062;-64
2021/10/02 10:53:04;;;;;;;9.90;7.35;;;;;;;;;;5092620;28;20051;-65
2021/10/02 10:55:31;;;;;;;8.43;5.63;;;;;;;;;;5093175;28;20451;-64
2021/10/02 10:57:58;;;;;;;9.77;6.57;;;;;;;;;;5092930;28;20472;-65
2021/10/02 11:00:29;;;;;;;10.70;8.00;;;;;;;;;;5092456;28;20571;-65
2021/10/02 11:02:56;;;;;;;9.68;7.63;;;;;;;;;;5092517;28;20127;-65
2021/10/02 11:05:37;;;;;;;11.68;7.28;;;;;;;;;;5092581;28;20044;-65
2021/10/02 11:08:03;;;;;;;8.48;6.95;;;;;;;;;;5092501;28;20093;-64
2021/10/02 11:10:45;;;;;;;11.35;7.40;;;;;;;;;;5092552;28;20761;-64
2021/10/02 11:13:11;;;;;;;13.68;7.47;;;;;;;;;;5092230;28;20064;-64
2021/10/02 11:15:36;;;;;;;12.57;7.47;;;;;;;;;;5092195;28;20093;-64
2021/10/02 11:18:02;;;;;;;9.90;7.90;;;;;;;;;;5092201;28;20032;-64
2021/10/02 11:20:37;;;;;;;10.13;6.95;;;;;;;;;;5092238;28;20040;-65
2021/10/02 11:23:22;;;;;;;9.52;6.20;;;;;;;;;;5092348;28;20044;-65
2021/10/02 11:26:08;;;;;;;7.53;4.85;;;;;;;;;;5092324;28;20500;-64
2021/10/02 11:28:33;;;;;;;8.77;7.40;;;;;;;;;;5091807;28;20043;-64
2021/10/02 11:30:59;;;;;;;8.50;7.30;;;;;;;;;;5092070;28;20653;-64
2021/10/02 11:33:31;;;;;;;10.27;7.93;;;;;;;;;;5092460;28;20428;-64
2021/10/02 11:35:56;;;;;;;9.35;6.93;;;;;;;;;;5092569;28;20046;-64
2021/10/02 11:38:35;;;;;;;6.05;4.47;;;;;;;;;;5105296;28;20036;-64
2021/10/02 11:41:19;;;;;;;8.43;7.10;;;;;;;;;;5091459;28;20387;-64
2021/10/02 11:43:52;;;;;;;7.10;5.72;;;;;;;;;;5091967;28;20051;-62
2021/10/02 11:46:18;;;;;;;10.77;6.13;;;;;;;;;;5091683;28;20131;-61
2021/10/02 11:48:44;;;;;;;10.27;7.40;;;;;;;;;;5090907;28;20486;-61
2021/10/02 11:51:24;;;;;;;11.52;7.35;;;;;;;;;;5091741;28;20125;-62
2021/10/02 11:53:57;;;;;;;7.53;4.85;;;;;;;;;;5091790;28;20032;-61
2021/10/02 11:56:24;;;;;;;9.00;8.02;;;;;;;;;;5090291;28;20058;-62
2021/10/02 11:58:50;;;;;;;14.15;7.13;;;;;;;;;;5087579;28;20029;-61
2021/10/02 12:01:24;;;;;;;9.10;6.60;;;;;;;;;;5100321;28;20036;-61
2021/10/02 12:03:57;;;;;;;10.73;6.85;;;;;;;;;;5096616;28;20020;-62
2021/10/02 12:06:23;;;;;;;8.27;6.38;;;;;;;;;;5099861;28;20042;-61
2021/10/02 12:08:50;;;;;;;7.55;6.78;;;;;;;;;;5101287;28;20110;-63
2021/10/02 12:11:15;;;;;;;8.63;6.32;;;;;;;;;;5099771;28;20541;-63
2021/10/02 12:13:45;;;;;;;11.43;7.55;;;;;;;;;;5099574;28;20036;-63
2021/10/02 12:16:18;;;;;;;10.18;6.93;;;;;;;;;;5099170;28;20073;-63
2021/10/02 12:18:48;;;;;;;8.10;6.97;;;;;;;;;;5104609;28;20043;-65
2021/10/02 12:21:34;;;;;;;10.73;7.13;;;;;;;;;;5110994;28;20067;-65
2021/10/02 12:24:17;;;;;;;11.65;8.00;;;;;;;;;;5093336;28;20073;-65
2021/10/02 12:26:51;;;;;;;6.93;5.85;;;;;;;;;;5110716;28;20043;-65
2021/10/02 12:29:18;;;;;;;8.00;6.55;;;;;;;;;;5093094;28;20153;-64
2021/10/02 12:31:56;;;;;;;9.55;7.28;;;;;;;;;;5111347;28;20031;-64
2021/10/02 12:34:26;;;;;;;5.93;5.22;;;;;;;;;;5111063;28;20031;-65
2021/10/02 12:36:56;;;;;;;5.20;4.70;;;;;;;;;;5110795;28;20044;-65
2021/10/02 12:39:27;;;;;;;5.95;5.00;;;;;;;;;;5110718;28;20391;-65
2021/10/02 12:41:53;;;;;;;4.10;3.17;;;;;;;;;;5110568;28;20127;-62
2021/10/02 12:44:20;;;;;;;5.32;4.50;;;;;;;;;;5110707;28;20114;-61
2021/10/02 12:46:46;;;;;;;9.25;6.50;;;;;;;;;;5110876;28;20047;-60
2021/10/02 12:49:12;;;;;;;4.10;3.22;;;;;;;;;;5110790;28;20182;-61
2021/10/02 12:51:39;;;;;;;6.50;5.82;;;;;;;;;;5110673;28;20123;-61
2021/10/02 12:54:06;;;;;;;7.15;5.78;;;;;;;;;;5110704;28;20028;-61
2021/10/02 12:56:31;;;;;;;7.50;5.93;;;;;;;;;;5110843;28;20035;-61
2021/10/02 12:59:10;;;;;;;6.43;5.82;;;;;;;;;;5110547;28;20027;-61
2021/10/02 13:01:43;;;;;;;8.02;5.13;;;;;;;;;;5111056;28;20042;-61
2021/10/02 13:04:13;;;;;;;2.25;2.08;;;;;;;;;;5110653;28;20406;-61
2021/10/02 13:06:39;;;;;;;;;;;;;;;;;;5092411;28;20560;-64
2021/10/02 13:09:04;;;;;;;5.18;4.55;;;;;;;;;;5110585;28;19903;-64
2021/10/02 13:11:35;;;;;;;9.25;3.67;;;;;;;;;;5110603;28;20083;-64
2021/10/02 13:14:06;;;;;;;6.13;5.35;;;;;;;;;;5075351;28;20036;-64
2021/10/02 13:16:32;;;;;;;8.50;5.65;;;;;;;;;;5090576;28;20501;-64
2021/10/02 13:18:58;;;;;;;6.95;5.88;;;;;;;;;;5109153;28;20040;-64
2021/10/02 13:21:23;;;;;;;8.05;5.13;;;;;;;;;;5110114;28;20042;-64
2021/10/02 13:23:49;;;;;;;10.48;7.57;;;;;;;;;;5110450;28;20039;-64
2021/10/02 13:26:21;;;;;;;7.15;5.70;;;;;;;;;;5110092;28;20024;-64
2021/10/02 13:28:54;;;;;;;10.02;6.50;;;;;;;;;;5109871;28;20046;-64
2021/10/02 13:31:38;;;;;;;8.77;6.20;;;;;;;;;;5110362;28;20031;-64
2021/10/02 13:34:06;;;;;;;6.75;6.00;;;;;;;;;;5110705;28;20044;-64
2021/10/02 13:36:34;;;;;;;9.18;6.57;;;;;;;;;;5110401;28;20039;-64
2021/10/02 13:39:08;;;;;;;7.63;6.00;;;;;;;;;;5114392;28;20067;-64
2021/10/02 13:41:35;;;;;;;4.03;3.03;;;;;;;;;;5114276;28;20040;-64
2021/10/02 13:44:03;;;;;;;7.88;6.00;;;;;;;;;;5114420;28;20337;-64
2021/10/02 13:46:44;;;;;;;9.13;4.28;;;;;;;;;;5114172;28;20510;-64
2021/10/02 13:49:14;;;;;;;6.50;5.80;;;;;;;;;;5114077;28;20081;-64
2021/10/02 13:51:40;;;;;;;7.67;5.50;;;;;;;;;;5114206;28;20447;-64
2021/10/02 13:54:06;;;;;;;4.88;3.83;;;;;;;;;;5114346;28;20035;-64
2021/10/02 13:56:33;;;;;;;6.32;5.13;;;;;;;;;;5114296;28;20031;-64
2021/10/02 13:58:58;;;;;;;7.40;6.03;;;;;;;;;;5113963;28;20067;-64
2021/10/02 14:01:24;;;;;;;8.07;6.03;;;;;;;;;;5114195;28;20067;-63
2021/10/02 14:03:49;;;;;;;7.35;5.85;;;;;;;;;;5114039;28;20028;-63
2021/10/02 14:06:15;;;;;;;2.80;2.53;;;;;;;;;;5113924;28;20050;-63
2021/10/02 14:08:41;;;;;;;7.57;5.10;;;;;;;;;;5113511;28;20069;-63
2021/10/02 14:11:07;;;;;;;8.38;6.03;;;;;;;;;;5113839;28;20036;-64
2021/10/02 14:13:33;;;;;;;6.93;5.65;;;;;;;;;;5113569;28;20027;-64
2021/10/02 14:15:59;;;;;;;7.07;5.88;;;;;;;;;;5113475;28;20040;-63
2021/10/02 14:18:25;;;;;;;8.65;5.53;;;;;;;;;;5113575;28;20039;-63
2021/10/02 14:20:51;;;;;;;12.02;7.53;;;;;;;;;;5113806;28;20045;-64
2021/10/02 14:23:16;;;;;;;9.15;6.40;;;;;;;;;;5113541;28;20039;-64
2021/10/02 14:25:42;;;;;;;8.45;6.25;;;;;;;;;;5113357;28;20031;-64
2021/10/02 14:28:07;;;;;;;11.48;5.18;;;;;;;;;;5113264;28;20028;-64
2021/10/02 14:30:33;;;;;;;7.20;6.20;;;;;;;;;;5113303;28;20040;-64
2021/10/02 14:32:58;;;;;;;7.50;6.00;;;;;;;;;;5113228;28;20023;-64
2021/10/02 14:35:24;;;;;;;8.07;5.97;;;;;;;;;;5113273;28;20048;-64
2021/10/02 14:37:50;;;;;;;6.07;5.47;;;;;;;;;;5113270;28;20044;-64
2021/10/02 14:40:15;;;;;;;6.82;6.15;;;;;;;;;;5113145;28;20037;-64
2021/10/02 14:42:43;;;;;;;6.97;6.28;;;;;;;;;;5113062;28;20637;-64
2021/10/02 14:45:13;;;;;;;8.60;6.50;;;;;;;;;;5113176;28;20087;-64
2021/10/02 14:47:38;;;;;;;11.95;6.47;;;;;;;;;;5093939;28;20053;-64
2021/10/02 14:50:10;;;;;;;8.45;7.30;;;;;;;;;;5111681;28;20044;-64
2021/10/02 14:52:36;;;;;;;14.77;7.85;;;;;;;;;;5112880;28;20039;-64
2021/10/02 14:55:03;;;;;;;10.18;6.75;;;;;;;;;;5113145;28;20036;-64
2021/10/02 14:57:29;;;;;;;10.27;7.30;;;;;;;;;;5112841;28;20078;-64
2021/10/02 14:59:56;;;;;;;9.13;6.65;;;;;;;;;;5112225;28;20064;-64
2021/10/02 15:02:23;;;;;;;6.95;6.18;;;;;;;;;;5113068;28;20036;-64
2021/10/02 15:04:50;;;;;;;10.77;7.50;;;;;;;;;;5112496;28;20057;-64
2021/10/02 15:07:18;;;;;;;11.05;8.35;;;;;;;;;;5112627;28;20164;-64
2021/10/02 15:09:43;;;;;;;12.30;8.20;;;;;;;;;;5112299;28;20024;-63
2021/10/02 15:12:09;;;;;;;9.93;8.15;;;;;;;;;;5112656;28;20067;-63
2021/10/02 15:14:36;;;;;;;12.57;7.63;;;;;;;;;;5112834;28;20661;-64
2021/10/02 15:17:02;;;;;;;9.55;7.50;;;;;;;;;;5112541;28;20032;-64
2021/10/02 15:19:27;;;;;;;9.30;7.38;;;;;;;;;;5112622;28;20816;-63
2021/10/02 15:21:58;;;;;;;7.78;7.07;;;;;;;;;;5112424;28;20047;-63
2021/10/02 15:24:25;;;;;;;8.35;6.63;;;;;;;;;;5112812;28;20051;-63
2021/10/02 15:26:52;;;;;;;7.47;6.57;;;;;;;;;;5106582;28;20138;-63
2021/10/02 15:29:18;;;;;;;8.32;6.95;;;;;;;;;;5090522;28;20094;-62
2021/10/02 15:31:44;;;;;;;9.25;7.47;;;;;;;;;;5080634;28;20033;-62
2021/10/02 15:34:09;;;;;;;12.68;9.75;;;;;;;;;;5078687;28;20035;-63
2021/10/02 15:36:35;;;;;;;11.48;9.27;;;;;;;;;;5063295;28;20024;-62